CSN33LR ZGGG-VVNB
Flight info
| Callsign | CSN33LR |
|---|---|
| Flight time | 1h 13m |
| Altitude | 38100 |
| Route | VIBOS R473 ZUH R200 LH R339 WUY R474 NAKHA |
| Aircraft | B772/H-SDE2E3FGHIJ5LORVWXY/LB1D1 |
Departure
| Time | 2026-04-30 20:29 |
|---|---|
| Airport | Guangzhou Baiyun International Airport (ZGGG) |
Arrival
| Time | 2026-04-30 21:43 |
|---|---|
| Airport | Noi Bai International Airport (VVNB) |
| Time | Latitude | Longitude | Altitude | Speed | Heading |
|---|---|---|---|---|---|
| 2026-04-30 20:06 | 23.38871 | 113.30258 | 60 ft | 0 kts | 207° |
| 2026-04-30 20:19 | 23.38883 | 113.30265 | 60 ft | 2 kts | 207° |
| 2026-04-30 20:19 | 23.38894 | 113.30271 | 60 ft | 0 kts | 207° |
| 2026-04-30 20:19 | 23.38905 | 113.30277 | 60 ft | 2 kts | 192° |
| 2026-04-30 20:20 | 23.38920 | 113.30278 | 60 ft | 2 kts | 169° |
| 2026-04-30 20:20 | 23.38934 | 113.30273 | 60 ft | 2 kts | 149° |
| 2026-04-30 20:20 | 23.38946 | 113.30263 | 60 ft | 2 kts | 128° |
| 2026-04-30 20:20 | 23.38950 | 113.30256 | 60 ft | 1 kts | 118° |
| 2026-04-30 20:21 | 23.38952 | 113.30253 | 60 ft | 0 kts | 118° |
| 2026-04-30 20:22 | 23.38950 | 113.30257 | 60 ft | 2 kts | 118° |
| 2026-04-30 20:22 | 23.38936 | 113.30286 | 60 ft | 6 kts | 117° |
| 2026-04-30 20:23 | 23.38909 | 113.30343 | 60 ft | 10 kts | 116° |
| 2026-04-30 20:23 | 23.38877 | 113.30418 | 60 ft | 11 kts | 111° |
| 2026-04-30 20:23 | 23.38854 | 113.30508 | 60 ft | 12 kts | 104° |
| 2026-04-30 20:23 | 23.38832 | 113.30607 | 60 ft | 12 kts | 103° |
| 2026-04-30 20:24 | 23.38792 | 113.30657 | 60 ft | 9 kts | 171° |
| 2026-04-30 20:24 | 23.38717 | 113.30640 | 60 ft | 11 kts | 194° |
| 2026-04-30 20:24 | 23.38633 | 113.30618 | 60 ft | 13 kts | 194° |
| 2026-04-30 20:24 | 23.38538 | 113.30592 | 60 ft | 14 kts | 193° |
| 2026-04-30 20:25 | 23.38298 | 113.30528 | 60 ft | 21 kts | 195° |
| 2026-04-30 20:25 | 23.38149 | 113.30487 | 60 ft | 22 kts | 194° |
| 2026-04-30 20:26 | 23.37861 | 113.30408 | 60 ft | 9 kts | 192° |
| 2026-04-30 20:26 | 23.37783 | 113.30520 | 60 ft | 12 kts | 104° |
| 2026-04-30 20:26 | 23.37774 | 113.30575 | 60 ft | 5 kts | 77° |
| 2026-04-30 20:27 | 23.37807 | 113.30595 | 60 ft | 0 kts | 14° |
| 2026-04-30 20:28 | 23.38343 | 113.30741 | 60 ft | 124 kts | 14° |
| 2026-04-30 20:29 | 23.40605 | 113.31331 | 1385 ft | 185 kts | 14° |
| 2026-04-30 20:30 | 23.44740 | 113.32437 | 3815 ft | 230 kts | 15° |
| 2026-04-30 20:30 | 23.49680 | 113.33727 | 6422 ft | 258 kts | 7° |
| 2026-04-30 20:31 | 23.53761 | 113.30514 | 8767 ft | 274 kts | 276° |
| 2026-04-30 20:32 | 23.52945 | 113.24280 | 11110 ft | 296 kts | 260° |
| 2026-04-30 20:32 | 23.52164 | 113.19645 | 12246 ft | 327 kts | 260° |
| 2026-04-30 20:33 | 23.51743 | 113.17150 | 12819 ft | 342 kts | 260° |
| 2026-04-30 20:33 | 23.50852 | 113.11881 | 13951 ft | 369 kts | 260° |
| 2026-04-30 20:33 | 23.50384 | 113.09120 | 14623 ft | 378 kts | 260° |
| 2026-04-30 20:34 | 23.49413 | 113.03391 | 16264 ft | 387 kts | 260° |
| 2026-04-30 20:34 | 23.48428 | 112.97599 | 17765 ft | 397 kts | 259° |
| 2026-04-30 20:35 | 23.47926 | 112.94657 | 18469 ft | 403 kts | 259° |
| 2026-04-30 20:35 | 23.47412 | 112.91640 | 19223 ft | 408 kts | 259° |
| 2026-04-30 20:35 | 23.46372 | 112.85555 | 20823 ft | 414 kts | 260° |
| 2026-04-30 20:36 | 23.45846 | 112.82478 | 21455 ft | 421 kts | 260° |
| 2026-04-30 20:36 | 23.45307 | 112.79334 | 22086 ft | 428 kts | 260° |
| 2026-04-30 20:36 | 23.44207 | 112.72916 | 23585 ft | 434 kts | 260° |
| 2026-04-30 20:37 | 23.43658 | 112.69717 | 24243 ft | 439 kts | 260° |
| 2026-04-30 20:37 | 23.43088 | 112.66403 | 24851 ft | 445 kts | 260° |
| 2026-04-30 20:37 | 23.42522 | 112.63119 | 25512 ft | 449 kts | 260° |
| 2026-04-30 20:37 | 23.41941 | 112.59748 | 26173 ft | 452 kts | 260° |
| 2026-04-30 20:38 | 23.41361 | 112.56386 | 26763 ft | 457 kts | 260° |
| 2026-04-30 20:38 | 23.40774 | 112.52998 | 27312 ft | 462 kts | 260° |
| 2026-04-30 20:38 | 23.40172 | 112.49519 | 27862 ft | 466 kts | 260° |
| 2026-04-30 20:39 | 23.38965 | 112.42561 | 28990 ft | 474 kts | 260° |
| 2026-04-30 20:39 | 23.38353 | 112.39043 | 29564 ft | 477 kts | 260° |
| 2026-04-30 20:39 | 23.37733 | 112.35484 | 30073 ft | 481 kts | 260° |
| 2026-04-30 20:40 | 23.36488 | 112.28346 | 31346 ft | 483 kts | 260° |
| 2026-04-30 20:40 | 23.35865 | 112.24786 | 32241 ft | 478 kts | 260° |
| 2026-04-30 20:40 | 23.35245 | 112.21245 | 33088 ft | 474 kts | 260° |
| 2026-04-30 20:41 | 23.34017 | 112.14248 | 34823 ft | 466 kts | 260° |
| 2026-04-30 20:41 | 23.33400 | 112.10741 | 35654 ft | 463 kts | 261° |
| 2026-04-30 20:41 | 23.32800 | 112.07333 | 36438 ft | 458 kts | 261° |
| 2026-04-30 20:41 | 23.32200 | 112.03930 | 37072 ft | 456 kts | 261° |
| 2026-04-30 20:42 | 23.31608 | 112.00575 | 37565 ft | 456 kts | 261° |
| 2026-04-30 20:42 | 23.31010 | 111.97198 | 38058 ft | 456 kts | 261° |
| 2026-04-30 20:42 | 23.29810 | 111.90423 | 39016 ft | 454 kts | 261° |
| 2026-04-30 20:43 | 23.29216 | 111.87077 | 39558 ft | 452 kts | 261° |
| 2026-04-30 20:43 | 23.28620 | 111.83724 | 40076 ft | 449 kts | 261° |
| 2026-04-30 20:43 | 23.28029 | 111.80404 | 40121 ft | 452 kts | 261° |
| 2026-04-30 20:44 | 23.26241 | 111.70377 | 40122 ft | 448 kts | 261° |
| 2026-04-30 20:45 | 23.23843 | 111.56990 | 40116 ft | 460 kts | 261° |
| 2026-04-30 20:45 | 23.22604 | 111.50101 | 40119 ft | 467 kts | 261° |
| 2026-04-30 20:46 | 23.20103 | 111.36259 | 40115 ft | 468 kts | 261° |
| 2026-04-30 20:47 | 23.18216 | 111.25858 | 40120 ft | 469 kts | 260° |
| 2026-04-30 20:48 | 23.16324 | 111.15472 | 40110 ft | 469 kts | 260° |
| 2026-04-30 20:48 | 23.15052 | 111.08508 | 40103 ft | 470 kts | 260° |
| 2026-04-30 20:49 | 23.13778 | 111.01553 | 40107 ft | 471 kts | 260° |
| 2026-04-30 20:50 | 23.11857 | 110.91101 | 40104 ft | 471 kts | 260° |
| 2026-04-30 20:50 | 23.10582 | 110.84185 | 40107 ft | 471 kts | 260° |
| 2026-04-30 20:51 | 23.09292 | 110.77208 | 40110 ft | 470 kts | 260° |
| 2026-04-30 20:51 | 23.07363 | 110.66804 | 40114 ft | 471 kts | 260° |
| 2026-04-30 20:52 | 23.06074 | 110.59867 | 40109 ft | 470 kts | 260° |
| 2026-04-30 20:53 | 23.04129 | 110.49442 | 40109 ft | 471 kts | 260° |
| 2026-04-30 20:53 | 23.02834 | 110.42518 | 40111 ft | 470 kts | 260° |
| 2026-04-30 20:54 | 23.00873 | 110.32070 | 40120 ft | 472 kts | 259° |
| 2026-04-30 20:55 | 22.98917 | 110.21684 | 40121 ft | 470 kts | 259° |
| 2026-04-30 20:55 | 22.97601 | 110.14716 | 40110 ft | 471 kts | 259° |
| 2026-04-30 20:56 | 22.95638 | 110.04356 | 40099 ft | 471 kts | 259° |
| 2026-04-30 20:57 | 22.93657 | 109.93935 | 40094 ft | 472 kts | 259° |
| 2026-04-30 20:57 | 22.92328 | 109.86968 | 40093 ft | 472 kts | 259° |
| 2026-04-30 20:58 | 22.90328 | 109.76511 | 40078 ft | 474 kts | 259° |
| 2026-04-30 20:58 | 22.88990 | 109.69539 | 40075 ft | 474 kts | 259° |
| 2026-04-30 20:59 | 22.86976 | 109.59068 | 40072 ft | 473 kts | 259° |
| 2026-04-30 21:00 | 22.84292 | 109.45176 | 40072 ft | 465 kts | 259° |
| 2026-04-30 21:01 | 22.82984 | 109.38431 | 40073 ft | 453 kts | 259° |
| 2026-04-30 21:01 | 22.82341 | 109.35120 | 40074 ft | 453 kts | 259° |
| 2026-04-30 21:02 | 22.80382 | 109.25052 | 40077 ft | 456 kts | 259° |
| 2026-04-30 21:02 | 22.79080 | 109.18378 | 40081 ft | 456 kts | 259° |
| 2026-04-30 21:03 | 22.77769 | 109.11667 | 40088 ft | 455 kts | 259° |
| 2026-04-30 21:03 | 22.76459 | 109.04983 | 40093 ft | 456 kts | 259° |
| 2026-04-30 21:04 | 22.75140 | 108.98264 | 40091 ft | 454 kts | 259° |
| 2026-04-30 21:04 | 22.73165 | 108.88223 | 40090 ft | 456 kts | 259° |
| 2026-04-30 21:05 | 22.71849 | 108.81557 | 40088 ft | 455 kts | 259° |
| 2026-04-30 21:05 | 22.70525 | 108.74857 | 40084 ft | 457 kts | 259° |
| 2026-04-30 21:06 | 22.69196 | 108.68151 | 40085 ft | 457 kts | 259° |
| 2026-04-30 21:06 | 22.67861 | 108.61422 | 40082 ft | 458 kts | 259° |
| 2026-04-30 21:07 | 22.66528 | 108.54718 | 40078 ft | 458 kts | 259° |
| 2026-04-30 21:07 | 22.65186 | 108.47975 | 40081 ft | 459 kts | 259° |
| 2026-04-30 21:08 | 22.63839 | 108.41222 | 40082 ft | 460 kts | 259° |
| 2026-04-30 21:08 | 22.62493 | 108.34486 | 40087 ft | 460 kts | 259° |
| 2026-04-30 21:09 | 22.61138 | 108.27710 | 40092 ft | 461 kts | 259° |
| 2026-04-30 21:09 | 22.59787 | 108.20960 | 40095 ft | 461 kts | 259° |
| 2026-04-30 21:10 | 22.58434 | 108.14166 | 40096 ft | 462 kts | 260° |
| 2026-04-30 21:10 | 22.57236 | 108.07377 | 40096 ft | 461 kts | 261° |
| 2026-04-30 21:11 | 22.56051 | 108.00607 | 40095 ft | 461 kts | 261° |
| 2026-04-30 21:11 | 22.54850 | 107.93787 | 40094 ft | 463 kts | 261° |
| 2026-04-30 21:12 | 22.53642 | 107.86951 | 40091 ft | 461 kts | 261° |
| 2026-04-30 21:12 | 22.52443 | 107.80185 | 40087 ft | 462 kts | 261° |
| 2026-04-30 21:13 | 22.51226 | 107.73347 | 40076 ft | 463 kts | 261° |
| 2026-04-30 21:13 | 22.50015 | 107.66557 | 40077 ft | 463 kts | 261° |
| 2026-04-30 21:14 | 22.48794 | 107.59723 | 40066 ft | 463 kts | 261° |
| 2026-04-30 21:14 | 22.47576 | 107.52929 | 40071 ft | 463 kts | 261° |
| 2026-04-30 21:15 | 22.46352 | 107.46121 | 40069 ft | 462 kts | 261° |
| 2026-04-30 21:15 | 22.45129 | 107.39336 | 40071 ft | 461 kts | 261° |
| 2026-04-30 21:16 | 22.43896 | 107.32508 | 40077 ft | 462 kts | 261° |
| 2026-04-30 21:16 | 22.42672 | 107.25752 | 39823 ft | 456 kts | 261° |
| 2026-04-30 21:17 | 22.42070 | 107.22410 | 38802 ft | 459 kts | 261° |
| 2026-04-30 21:17 | 22.41463 | 107.19016 | 38036 ft | 458 kts | 261° |
| 2026-04-30 21:17 | 22.40862 | 107.15668 | 37329 ft | 456 kts | 261° |
| 2026-04-30 21:17 | 22.40267 | 107.12352 | 36587 ft | 455 kts | 260° |
| 2026-04-30 21:18 | 22.39661 | 107.08978 | 35813 ft | 455 kts | 260° |
| 2026-04-30 21:18 | 22.39059 | 107.05632 | 35045 ft | 461 kts | 260° |
| 2026-04-30 21:18 | 22.38439 | 107.02190 | 34202 ft | 479 kts | 260° |
| 2026-04-30 21:18 | 22.37801 | 106.98660 | 33334 ft | 484 kts | 259° |
| 2026-04-30 21:19 | 22.37149 | 106.95057 | 32473 ft | 485 kts | 259° |
| 2026-04-30 21:19 | 22.36348 | 106.91532 | 31593 ft | 488 kts | 252° |
| 2026-04-30 21:19 | 22.35070 | 106.88155 | 30693 ft | 491 kts | 244° |
| 2026-04-30 21:19 | 22.33317 | 106.85043 | 30115 ft | 486 kts | 235° |
| 2026-04-30 21:20 | 22.31156 | 106.82262 | 29598 ft | 483 kts | 228° |
| 2026-04-30 21:20 | 22.28800 | 106.79666 | 29019 ft | 483 kts | 226° |
| 2026-04-30 21:20 | 22.26424 | 106.77098 | 28410 ft | 483 kts | 226° |
| 2026-04-30 21:20 | 22.24062 | 106.74560 | 27815 ft | 479 kts | 226° |
| 2026-04-30 21:21 | 22.21726 | 106.72058 | 27221 ft | 473 kts | 226° |
| 2026-04-30 21:21 | 22.19422 | 106.69596 | 26635 ft | 468 kts | 226° |
| 2026-04-30 21:21 | 22.14593 | 106.64977 | 25481 ft | 458 kts | 220° |
| 2026-04-30 21:22 | 22.12145 | 106.62837 | 24913 ft | 453 kts | 220° |
| 2026-04-30 21:22 | 22.04931 | 106.56545 | 23244 ft | 439 kts | 220° |
| 2026-04-30 21:23 | 22.02568 | 106.54486 | 22695 ft | 435 kts | 220° |
| 2026-04-30 21:23 | 22.00231 | 106.52451 | 22140 ft | 432 kts | 220° |
| 2026-04-30 21:23 | 21.95607 | 106.48406 | 21031 ft | 424 kts | 223° |
| 2026-04-30 21:24 | 21.93423 | 106.46323 | 20471 ft | 420 kts | 224° |
| 2026-04-30 21:24 | 21.91252 | 106.44228 | 19906 ft | 417 kts | 224° |
| 2026-04-30 21:24 | 21.89090 | 106.42149 | 19330 ft | 413 kts | 224° |
| 2026-04-30 21:24 | 21.86951 | 106.40095 | 18762 ft | 410 kts | 224° |
| 2026-04-30 21:25 | 21.82740 | 106.36066 | 17632 ft | 403 kts | 225° |
| 2026-04-30 21:25 | 21.80664 | 106.34083 | 17079 ft | 399 kts | 224° |
| 2026-04-30 21:25 | 21.78590 | 106.32103 | 16524 ft | 395 kts | 224° |
| 2026-04-30 21:26 | 21.74527 | 106.28230 | 15397 ft | 389 kts | 224° |
| 2026-04-30 21:26 | 21.72580 | 106.26206 | 14841 ft | 384 kts | 230° |
| 2026-04-30 21:27 | 21.69154 | 106.22026 | 14664 ft | 374 kts | 231° |
| 2026-04-30 21:27 | 21.67425 | 106.19909 | 14572 ft | 375 kts | 231° |
| 2026-04-30 21:27 | 21.65707 | 106.17807 | 14448 ft | 373 kts | 230° |
| 2026-04-30 21:28 | 21.62302 | 106.13646 | 14197 ft | 372 kts | 230° |
| 2026-04-30 21:28 | 21.60591 | 106.11557 | 14072 ft | 371 kts | 230° |
| 2026-04-30 21:28 | 21.57312 | 106.07303 | 13416 ft | 365 kts | 234° |
| 2026-04-30 21:29 | 21.55791 | 106.05116 | 12808 ft | 365 kts | 234° |
| 2026-04-30 21:29 | 21.51276 | 105.98695 | 11208 ft | 356 kts | 234° |
| 2026-04-30 21:30 | 21.48249 | 105.94527 | 10205 ft | 350 kts | 231° |
| 2026-04-30 21:31 | 21.43858 | 105.88837 | 9882 ft | 308 kts | 232° |
| 2026-04-30 21:31 | 21.41305 | 105.85506 | 9465 ft | 272 kts | 232° |
| 2026-04-30 21:32 | 21.39019 | 105.82492 | 8781 ft | 257 kts | 237° |
| 2026-04-30 21:32 | 21.38359 | 105.80708 | 8148 ft | 260 kts | 259° |
| 2026-04-30 21:32 | 21.38123 | 105.78805 | 7700 ft | 257 kts | 263° |
| 2026-04-30 21:32 | 21.37955 | 105.76928 | 7297 ft | 251 kts | 263° |
| 2026-04-30 21:33 | 21.37795 | 105.75110 | 6996 ft | 243 kts | 263° |
| 2026-04-30 21:33 | 21.37473 | 105.71508 | 6047 ft | 244 kts | 262° |
| 2026-04-30 21:33 | 21.37309 | 105.69691 | 5736 ft | 244 kts | 262° |
| 2026-04-30 21:34 | 21.37145 | 105.67879 | 5446 ft | 244 kts | 262° |
| 2026-04-30 21:34 | 21.37130 | 105.64253 | 4830 ft | 249 kts | 281° |
| 2026-04-30 21:34 | 21.37616 | 105.62453 | 4544 ft | 249 kts | 285° |
| 2026-04-30 21:35 | 21.38129 | 105.60701 | 4358 ft | 244 kts | 285° |
| 2026-04-30 21:35 | 21.38627 | 105.58992 | 4327 ft | 233 kts | 285° |
| 2026-04-30 21:35 | 21.39100 | 105.57352 | 4183 ft | 229 kts | 285° |
| 2026-04-30 21:35 | 21.39477 | 105.55720 | 4010 ft | 223 kts | 269° |
| 2026-04-30 21:36 | 21.39139 | 105.54137 | 3989 ft | 223 kts | 238° |
| 2026-04-30 21:36 | 21.38046 | 105.52960 | 3986 ft | 222 kts | 206° |
| 2026-04-30 21:37 | 21.33584 | 105.53237 | 3992 ft | 219 kts | 167° |
| 2026-04-30 21:37 | 21.32126 | 105.53719 | 3985 ft | 217 kts | 149° |
| 2026-04-30 21:37 | 21.30912 | 105.54676 | 3991 ft | 219 kts | 143° |
| 2026-04-30 21:37 | 21.29727 | 105.55708 | 3987 ft | 219 kts | 132° |
| 2026-04-30 21:38 | 21.28898 | 105.57082 | 3988 ft | 219 kts | 117° |
| 2026-04-30 21:38 | 21.28314 | 105.58605 | 3791 ft | 226 kts | 111° |
| 2026-04-30 21:38 | 21.27814 | 105.60215 | 3496 ft | 228 kts | 109° |
| 2026-04-30 21:38 | 21.27336 | 105.61849 | 3204 ft | 230 kts | 108° |
| 2026-04-30 21:39 | 21.26870 | 105.63468 | 2915 ft | 231 kts | 108° |
| 2026-04-30 21:39 | 21.26410 | 105.65071 | 2618 ft | 211 kts | 108° |
| 2026-04-30 21:39 | 21.26000 | 105.66498 | 2372 ft | 192 kts | 108° |
| 2026-04-30 21:39 | 21.25619 | 105.67814 | 2137 ft | 175 kts | 107° |
| 2026-04-30 21:40 | 21.25275 | 105.68999 | 1919 ft | 161 kts | 107° |
| 2026-04-30 21:40 | 21.24955 | 105.70103 | 1715 ft | 147 kts | 107° |
| 2026-04-30 21:40 | 21.24662 | 105.71114 | 1522 ft | 137 kts | 107° |
| 2026-04-30 21:40 | 21.24395 | 105.72034 | 1350 ft | 126 kts | 107° |
| 2026-04-30 21:41 | 21.24128 | 105.72953 | 1180 ft | 132 kts | 107° |
| 2026-04-30 21:41 | 21.23856 | 105.73891 | 992 ft | 131 kts | 107° |
| 2026-04-30 21:41 | 21.23587 | 105.74818 | 812 ft | 130 kts | 107° |
| 2026-04-30 21:41 | 21.23313 | 105.75757 | 633 ft | 132 kts | 107° |
| 2026-04-30 21:42 | 21.23017 | 105.76711 | 440 ft | 136 kts | 106° |
| 2026-04-30 21:42 | 21.22742 | 105.77683 | 263 ft | 137 kts | 107° |
| 2026-04-30 21:42 | 21.22461 | 105.78654 | 84 ft | 137 kts | 105° |
| 2026-04-30 21:42 | 21.22221 | 105.79492 | 58 ft | 83 kts | 107° |
| 2026-04-30 21:43 | 21.22119 | 105.79842 | 57 ft | 28 kts | 109° |
| 2026-04-30 21:43 | 21.22072 | 105.79993 | 56 ft | 13 kts | 126° |
| 2026-04-30 21:43 | 21.21982 | 105.80000 | 55 ft | 15 kts | 197° |
| 2026-04-30 21:43 | 21.21873 | 105.79966 | 55 ft | 16 kts | 196° |
| 2026-04-30 21:44 | 21.21847 | 105.79869 | 55 ft | 16 kts | 287° |
| 2026-04-30 21:44 | 21.21875 | 105.79760 | 55 ft | 8 kts | 265° |
| 2026-04-30 21:44 | 21.21825 | 105.79719 | 55 ft | 10 kts | 197° |
| 2026-04-30 21:44 | 21.21786 | 105.79706 | 55 ft | 0 kts | 197° |